La Tontouta, New Caledonia

2:43 AM NCT on August 01, 2014 (GMT +1100)
La Tontouta (NWWW) Elev 52 ft | 22.02 °S, 166.22 °E | Change Station

Current weather conditions updated 13 minutes ago

Clear
Clear
61 °F
Feels Like 61 °F
N
0
Wind Variable Wind from North

Today is forecast to be Cooler than yesterday.

Today
High -- | Low -- °F
--% Chance of Precip.
Yesterday
High -- | Low -- °F
Precip. -- in
6:28 AM 5:35 PM
Waxing Crescent, 19% visible
Pressure 30.09 in
Visibility 6.2 miles
Clouds
Dew Point 59 °F
Humidity 94%
Rainfall 0.00 in
Snow Depth Not available.
UV Not available.
Pollen Not available.
Air Quality Not available.
Flu Activity Not available.
METAR NWWW 311530Z AUTO 00000KT 9999 NSC 16/15 Q1019

More Conditions Fewer Conditions

Pressure 30.09 in
Visibility 6.2 miles
Clouds
Dew Point 59 °F
Humidity 94%
Rainfall 0.00 in
Snow Depth Not available.
UV Not available.
Pollen Not available.
Air Quality Not available.
Flu Activity Not available.
METAR NWWW 311530Z AUTO 00000KT 9999 NSC 16/15 Q1019

More Conditions Fewer Conditions

10-Day Weather Forecast

Almanac

Astronomy

Aug. 01, 2014 Rise Set
Actual Time 6:28 AM NCT 5:35 PM NCT
Civil Twilight 6:04 AM NCT 5:58 PM NCT
Nautical Twilight 5:37 AM NCT 6:25 PM NCT
Astronomical Twilight 5:11 AM NCT 6:52 PM NCT
Moon 9:22 AM NCT (8/1) 9:55 PM NCT (8/1)
Length of Visible Light 11h 53m
Length of Day
11h 06m
Tomorrow will be 0m 53s longer.
Waxing Crescent, 19% of the Moon is Illuminated
Jul 31
Waxing Crescent
Aug 3
First Quarter
Aug 10
Full
Aug 17
Last Quarter
Aug 25
New

Yesterday's Extremes

Country Highs Country Lows

Community

WunderPhotos

Upload Photos

1,739,359 photos uploaded!

Nearby

Snow Depth

Not available.

Earthquake Activity

City Distance Mag. Time & Date
No recent earthquake activity has been reported nearby.
Minimum magnitude displayed is 2.5.

Coastal Water Temperatures

Place Temperature
No Stations Reporting

Nearby Weather Stations

There are no personal weather stations in this area.